Time;durP1;ratioP1;P1;durP2;ratioP2;P2;SDS_P1;SDS_P2;PMS_P1;PMS_P2;Temp;Humidity;BMP_temperature;BMP_pressure;BME280_temperature;BME280_humidity;BME280_pressure;Samples;Min_cycle;Max_cycle;Signal;HPM_P1;HPM_P2
2021/12/20 00:01:25;;;;;;;;;;;;;;;-0.71;90.57;98503.50;212683;1325;25384;-70
2021/12/20 00:07:27;;;;;;;;;;;;;;;-0.71;90.47;98498.91;213835;1320;25551;-70
2021/12/20 00:13:26;;;;;;;;;;;;;;;;;;;;;
2021/12/20 00:19:09;;;;;;;;;;;;;;;;;;;;;
2021/12/20 00:30:29;;;;;;;;;;;;;;;;;;;;;
2021/12/20 00:35:34;;;;;;;;;;;;;;;-0.24;90.94;98509.41;214135;1323;22604;-70
2021/12/20 00:40:50;;;;;;;;;;;;;;;;;;;;;
2021/12/20 00:46:56;;;;;;;;;;;;;;;;;;;;;
2021/12/20 00:58:05;;;;;;;;;;;;;;;-0.42;90.98;98519.25;214049;1319;24282;-70
2021/12/20 01:03:39;;;;;;;;;;;;;;;-0.45;90.73;98512.50;213817;1323;22658;-71
2021/12/20 01:08:51;;;;;;;;;;;;;;;-0.48;90.72;98520.40;213976;1322;24364;-70
2021/12/20 01:14:22;;;;;;;;;;;;;;;-0.46;91.29;98522.67;213617;1316;22539;-71
2021/12/20 01:19:45;;;;;;;;;;;;;;;-0.39;91.40;98525.41;213500;1324;22580;-70
2021/12/20 01:25:29;;;;;;;;;;;;;;;-0.32;91.04;98526.25;213522;1324;22624;-71
2021/12/20 01:30:57;;;;;;;;;;;;;;;-0.29;91.23;98526.17;213516;1324;24289;-70
2021/12/20 01:36:57;;;;;;;;;;;;;;;;;;;;;
2021/12/20 01:43:21;;;;;;;;;;;;;;;;;;;;;
2021/12/20 01:49:09;;;;;;;;;;;;;;;-0.07;91.32;98540.81;213429;1324;25520;-71
2021/12/20 01:54:39;;;;;;;;;;;;;;;-0.03;90.97;98534.27;213755;1325;22708;-71
2021/12/20 02:00:29;;;;;;;;;;;;;;;-0.01;90.89;98537.85;213541;1323;23152;-70
2021/12/20 02:06:47;;;;;;;;;;;;;;;0.02;90.61;98541.23;213623;1319;24132;-70
2021/12/20 02:12:31;;;;;;;;;;;;;;;0.04;90.49;98541.06;212682;1322;24137;-71
2021/12/20 02:18:36;;;;;;;;;;;;;;;0.08;90.70;98535.42;212563;1325;24450;-70
2021/12/20 02:25:19;;;;;;;;;;;;;;;0.09;90.65;98534.30;213516;1323;22508;-71
2021/12/20 02:42:50;;;;;;;;;;;;;;;;;;;;;
2021/12/20 02:55:29;;;;;;;;;;;;;;;0.23;89.77;98551.23;213671;1325;22593;-71
2021/12/20 03:06:10;;;;;;;;;;;;;;;0.25;89.38;98547.76;213128;1323;22587;-70
2021/12/20 03:12:01;;;;;;;;;;;;;;;;;;;;;
2021/12/20 03:17:28;;;;;;;;;;;;;;;0.24;89.23;98550.14;212695;1323;26416;-72
2021/12/20 03:22:41;;;;;;;;;;;;;;;0.22;89.04;98547.77;213344;1324;22564;-70
2021/12/20 03:27:46;;;;;;;;;;;;;;;0.22;88.86;98556.04;213413;1325;25028;-71
2021/12/20 03:34:08;;;;;;;;;;;;;;;0.21;88.60;98551.60;213605;1322;22653;-72
2021/12/20 03:39:31;;;;;;;;;;;;;;;0.20;88.51;98551.26;212837;1324;24053;-71
2021/12/20 03:45:16;;;;;;;;;;;;;;;0.20;88.33;98555.42;213652;1324;24141;-71
2021/12/20 03:50:31;;;;;;;;;;;;;;;;;;;;;
2021/12/20 03:56:41;;;;;;;;;;;;;;;0.20;88.45;98555.78;213433;1325;24440;-71
2021/12/20 04:08:08;;;;;;;;;;;;;;;;;;;;;
2021/12/20 04:14:02;;;;;;;;;;;;;;;;;;;;;
2021/12/20 04:20:15;;;;;;;;;;;;;;;0.15;88.04;98560.96;213402;1325;22568;-70
2021/12/20 04:26:29;;;;;;;;;;;;;;;0.17;87.99;98559.10;212484;1322;22574;-71
2021/12/20 04:32:02;;;;;;;;;;;;;;;;;;;;;
2021/12/20 04:37:16;;;;;;;;;;;;;;;0.15;87.87;98552.69;213525;1325;22590;-70
2021/12/20 04:42:59;;;;;;;;;;;;;;;0.14;87.85;98569.24;213555;1322;25337;-71
2021/12/20 04:48:19;;;;;;;;;;;;;;;0.15;88.01;98575.95;213383;1324;23379;-71
2021/12/20 04:53:52;;;;;;;;;;;;;;;0.14;87.81;98575.16;213438;1324;24808;-71
2021/12/20 04:59:59;;;;;;;;;;;;;;;0.14;87.93;98587.00;213669;1319;24148;-70
2021/12/20 05:06:00;;;;;;;;;;;;;;;0.16;87.94;98583.52;213583;1324;22583;-71
2021/12/20 05:11:48;;;;;;;;;;;;;;;;;;;;;
2021/12/20 05:22:47;;;;;;;;;;;;;;;0.11;87.94;98591.30;212545;1324;23015;-70
2021/12/20 05:27:53;;;;;;;;;;;;;;;0.09;87.79;98588.03;212429;1321;22581;-71
2021/12/20 05:33:44;;;;;;;;;;;;;;;;;;;;;
2021/12/20 05:39:58;;;;;;;;;;;;;;;0.10;87.75;98598.16;213350;1324;353876;-71
2021/12/20 05:46:19;;;;;;;;;;;;;;;0.14;87.96;98604.17;213630;1324;24321;-71
2021/12/20 05:51:40;;;;;;;;;;;;;;;0.16;87.76;98605.98;213370;1322;24272;-71
2021/12/20 05:56:45;;;;;;;;;;;;;;;0.15;87.87;98607.86;213721;1318;23304;-71
2021/12/20 06:07:28;;;;;;;;;;;;;;;0.17;87.65;98623.27;213620;1324;25634;-71
2021/12/20 06:13:17;;;;;;;;;;;;;;;0.18;87.84;98629.14;213603;1324;25425;-70
2021/12/20 06:18:56;;;;;;;;;;;;;;;0.18;87.47;98641.05;213133;1325;22586;-71
2021/12/20 06:24:53;;;;;;;;;;;;;;;0.17;87.74;98643.86;213330;1324;26399;-71
2021/12/20 06:29:57;;;;;;;;;;;;;;;0.15;87.31;98650.05;213472;1323;22603;-70
2021/12/20 06:35:53;;;;;;;;;;;;;;;;;;;;;
2021/12/20 06:41:21;;;;;;;;;;;;;;;0.07;87.48;98664.53;214009;1324;22555;-69
2021/12/20 06:46:52;;;;;;;;;;;;;;;0.05;87.77;98660.42;212729;1323;22574;-71
2021/12/20 06:52:38;;;;;;;;;;;;;;;0.02;87.70;98667.88;214438;1315;22587;-70
2021/12/20 06:58:02;;;;;;;;;;;;;;;0.02;87.76;98675.70;214508;1315;22539;-71
2021/12/20 07:03:08;;;;;;;;;;;;;;;0.03;87.70;98675.52;214201;1316;24231;-71
2021/12/20 07:08:10;;;;;;;;;;;;;;;0.04;87.84;98685.15;214295;1316;22967;-71
2021/12/20 07:13:12;;;;;;;;;;;;;;;0.06;87.63;98680.52;214318;1315;22561;-72
2021/12/20 07:18:21;;;;;;;;;;;;;;;0.06;87.70;98679.26;214491;1315;22664;-71
2021/12/20 07:23:23;;;;;;;;;;;;;;;0.05;87.77;98685.35;214564;1315;22575;-70
2021/12/20 07:28:30;;;;;;;;;;;;;;;0.04;87.84;98685.55;214590;1316;25220;-71
2021/12/20 07:33:46;;;;;;;;;;;;;;;;;;;;;
2021/12/20 07:39:00;;;;;;;;;;;;;;;;;;;;;
2021/12/20 07:44:55;;;;;;;;;;;;;;;0.05;88.04;98698.35;214185;1315;22611;-69
2021/12/20 07:51:06;;;;;;;;;;;;;;;;;;;;;
2021/12/20 07:56:51;;;;;;;;;;;;;;;0.06;88.13;98700.66;215661;1315;22522;-70
2021/12/20 08:02:38;;;;;;;;;;;;;;;0.06;88.30;98703.27;214317;1316;22616;-70
2021/12/20 08:08:01;;;;;;;;;;;;;;;0.08;88.13;98693.85;214139;1316;23181;-70
2021/12/20 08:13:03;;;;;;;;;;;;;;;0.14;88.23;98704.96;214256;1315;22574;-70
2021/12/20 08:18:06;;;;;;;;;;;;;;;0.17;87.97;98708.77;212447;1316;25538;-70
2021/12/20 08:23:26;;;;;;;;;;;;;;;0.19;87.76;98717.27;212303;1315;24350;-70
2021/12/20 08:28:53;;;;;;;;;;;;;;;0.20;87.98;98720.67;212575;1315;23082;-70
2021/12/20 08:34:12;;;;;;;;;;;;;;;0.25;87.81;98721.66;212631;1316;22683;-72
2021/12/20 08:40:11;;;;;;;;;;;;;;;0.32;87.82;98730.44;213508;1321;25220;-72
2021/12/20 08:45:19;;;;;;;;;;;;;;;0.36;87.44;98724.48;213546;1321;22559;-71
2021/12/20 08:51:21;;;;;;;;;;;;;;;;;;;;;
2021/12/20 08:56:40;;;;;;;;;;;;;;;0.40;87.41;98725.67;213632;1321;23141;-70
2021/12/20 09:07:16;;;;;;;;;;;;;;;0.39;87.00;98731.66;214552;1320;25458;-70
2021/12/20 09:12:38;;;;;;;;;;;;;;;;;;;;;
2021/12/20 09:18:14;;;;;;;;;;;;;;;0.42;87.01;98741.36;214200;1315;24293;-71
2021/12/20 09:23:48;;;;;;;;;;;;;;;0.43;86.73;98745.88;214039;1316;25470;-70
2021/12/20 09:29:29;;;;;;;;;;;;;;;0.43;86.76;98747.38;214166;1316;22558;-70
2021/12/20 09:35:16;;;;;;;;;;;;;;;;;;;;;
2021/12/20 09:41:01;;;;;;;;;;;;;;;0.45;86.65;98754.48;214233;1315;25635;-70
2021/12/20 09:46:16;;;;;;;;;;;;;;;0.48;86.87;98757.62;214119;1315;25363;-70
2021/12/20 09:51:31;;;;;;;;;;;;;;;0.51;86.63;98760.05;214216;1318;24545;-70
2021/12/20 09:56:38;;;;;;;;;;;;;;;0.57;86.41;98765.98;214375;1315;23273;-72
2021/12/20 10:02:02;;;;;;;;;;;;;;;;;;;;;
2021/12/20 10:07:04;;;;;;;;;;;;;;;0.61;86.02;98769.77;212329;1315;22575;-70
2021/12/20 10:12:15;;;;;;;;;;;;;;;0.60;86.06;98773.28;212402;1315;22573;-70
2021/12/20 10:17:28;;;;;;;;;;;;;;;0.61;85.83;98768.68;214302;1315;22553;-70
2021/12/20 10:22:36;;;;;;;;;;;;;;;0.67;85.81;98775.48;214393;1316;22543;-70
2021/12/20 10:28:13;;;;;;;;;;;;;;;0.74;85.72;98770.13;214664;1315;25496;-71
2021/12/20 10:33:32;;;;;;;;;;;;;;;0.78;85.54;98772.51;214202;1316;25223;-70
2021/12/20 10:45:41;;;;;;;;;;;;;;;0.69;84.93;98781.39;213405;1322;24263;-69
2021/12/20 10:51:06;;;;;;;;;;;;;;;0.62;84.82;98779.89;213294;1321;25448;-69
2021/12/20 10:56:38;;;;;;;;;;;;;;;0.57;85.12;98780.49;213488;1321;22692;-69
2021/12/20 11:14:18;;;;;;;;;;;;;;;0.39;85.72;98783.27;212046;1322;22545;-69
2021/12/20 11:19:29;;;;;;;;;;;;;;;0.37;85.86;98794.36;212681;1316;22622;-69
2021/12/20 11:31:04;;;;;;;;;;;;;;;0.21;86.20;98797.30;213257;1316;22558;-67
2021/12/20 11:36:46;;;;;;;;;;;;;;;0.20;86.56;98797.32;214474;1322;22709;-70
2021/12/20 11:42:02;;;;;;;;;;;;;;;;;;;;;
2021/12/20 11:47:45;;;;;;;;;;;;;;;0.19;86.56;98797.88;212446;1323;22577;-69
2021/12/20 11:52:49;;;;;;;;;;;;;;;0.21;86.79;98799.84;212678;1321;25521;-70
2021/12/20 11:57:55;;;;;;;;;;;;;;;0.22;86.79;98800.25;214229;1323;22868;-69
2021/12/20 12:03:39;;;;;;;;;;;;;;;0.24;86.82;98805.34;214069;1317;23464;-69
2021/12/20 12:09:23;;;;;;;;;;;;;;;;;;;;;
2021/12/20 12:15:09;;;;;;;;;;;;;;;0.38;86.83;98797.88;213770;1323;22558;-70
2021/12/20 12:20:14;;;;;;;;;;;;;;;0.46;86.73;98797.98;214349;1316;23090;-70
2021/12/20 12:25:55;;;;;;;;;;;;;;;0.52;86.37;98790.52;212628;1323;24088;-69
2021/12/20 12:31:02;;;;;;;;;;;;;;;0.53;86.32;98791.49;213329;1316;26389;-70
2021/12/20 12:36:40;;;;;;;;;;;;;;;0.50;86.31;98788.20;214109;1319;25319;-69
2021/12/20 12:42:33;;;;;;;;;;;;;;;;;;;;;
2021/12/20 12:48:39;;;;;;;;;;;;;;;0.67;86.13;98789.34;212376;1322;24325;-69
2021/12/20 12:54:05;;;;;;;;;;;;;;;0.64;86.14;98790.42;212312;1318;25322;-70
2021/12/20 12:59:19;;;;;;;;;;;;;;;0.50;86.23;98798.17;212532;1316;22652;-69
2021/12/20 13:04:47;;;;;;;;;;;;;;;0.36;86.28;98808.97;212711;1321;24504;-70
2021/12/20 13:10:17;;;;;;;;;;;;;;;0.26;86.64;98816.42;212624;1324;22696;-70
2021/12/20 13:15:46;;;;;;;;;;;;;;;0.18;86.81;98820.56;212747;1317;22652;-69
2021/12/20 13:21:47;;;;;;;;;;;;;;;0.08;87.06;98830.84;212519;1323;22557;-70
2021/12/20 13:27:24;;;;;;;;;;;;;;;;;;;;;
2021/12/20 13:33:04;;;;;;;;;;;;;;;0.05;87.74;98840.06;212742;1317;22722;-70
2021/12/20 13:38:21;;;;;;;;;;;;;;;0.08;87.58;98837.28;212505;1316;317124;-73
2021/12/20 13:43:36;;;;;;;;;;;;;;;0.10;87.64;98836.94;214221;1319;25395;-71
2021/12/20 13:49:20;;;;;;;;;;;;;;;0.14;87.84;98837.22;214412;1316;22828;-70
2021/12/20 13:54:51;;;;;;;;;;;;;;;0.16;87.68;98835.65;214338;1315;22578;-70
2021/12/20 14:00:07;;;;;;;;;;;;;;;0.17;87.66;98844.15;214548;1316;24284;-69
2021/12/20 14:06:08;;;;;;;;;;;;;;;0.18;87.48;98855.83;214637;1322;22620;-74
2021/12/20 14:12:47;;;;;;;;;;;;;;;0.14;88.01;98859.14;214576;1322;25262;-71
2021/12/20 14:18:25;;;;;;;;;;;;;;;0.12;88.20;98860.87;213562;1320;22550;-71
2021/12/20 14:23:49;;;;;;;;;;;;;;;0.11;88.37;98865.70;214455;1315;22565;-69
2021/12/20 14:29:22;;;;;;;;;;;;;;;0.12;88.45;98862.17;214350;1315;22577;-70
2021/12/20 14:35:21;;;;;;;;;;;;;;;0.12;88.48;98860.38;214419;1315;22554;-70
2021/12/20 14:41:28;;;;;;;;;;;;;;;0.12;88.52;98859.60;214109;1319;25006;-70
2021/12/20 14:47:16;;;;;;;;;;;;;;;0.13;88.54;98866.96;213549;1316;24797;-71
2021/12/20 14:53:48;;;;;;;;;;;;;;;0.13;88.44;98868.84;214350;1315;24290;-70
2021/12/20 14:59:25;;;;;;;;;;;;;;;0.08;88.34;98861.55;214557;1318;22562;-70
2021/12/20 15:04:55;;;;;;;;;;;;;;;;;;;;;
2021/12/20 15:10:44;;;;;;;;;;;;;;;-0.03;88.31;98859.91;212899;1324;25313;-70
2021/12/20 15:17:26;;;;;;;;;;;;;;;-0.08;88.39;98857.69;212889;1316;24391;-69
2021/12/20 15:23:12;;;;;;;;;;;;;;;-0.09;88.22;98856.25;212582;1323;25576;-70
2021/12/20 15:28:59;;;;;;;;;;;;;;;;;;;;;
2021/12/20 15:34:35;;;;;;;;;;;;;;;-0.07;88.37;98874.34;214162;1322;25485;-70
2021/12/20 15:40:17;;;;;;;;;;;;;;;-0.06;87.99;98865.81;213850;1323;24326;-71
2021/12/20 15:45:22;;;;;;;;;;;;;;;-0.08;87.63;98868.02;213909;1323;22593;-69
2021/12/20 15:57:17;;;;;;;;;;;;;;;-0.10;87.32;98877.11;213722;1323;22582;-70
2021/12/20 16:02:21;;;;;;;;;;;;;;;-0.08;87.17;98880.42;214197;1323;22625;-69
2021/12/20 16:07:50;;;;;;;;;;;;;;;-0.08;87.03;98878.12;213177;1321;22570;-70
2021/12/20 16:13:46;;;;;;;;;;;;;;;-0.05;86.89;98879.83;213881;1320;24494;-71
2021/12/20 16:20:02;;;;;;;;;;;;;;;-0.02;86.84;98884.90;213157;1323;25329;-70
2021/12/20 16:26:00;;;;;;;;;;;;;;;0.01;86.71;98884.35;213151;1321;23965;-70
2021/12/20 16:38:48;;;;;;;;;;;;;;;-0.03;86.49;98901.93;214237;1316;22717;-70
2021/12/20 16:51:33;;;;;;;;;;;;;;;-0.08;87.01;98920.21;213770;1323;22662;-71
2021/12/20 16:57:34;;;;;;;;;;;;;;;;;;;;;
2021/12/20 17:23:27;;;;;;;;;;;;;;;-0.06;86.03;98954.70;213967;1316;22564;-70
2021/12/20 17:29:49;;;;;;;;;;;;;;;-0.05;86.06;98962.77;214145;1317;26392;-70
2021/12/20 17:35:18;;;;;;;;;;;;;;;-0.11;85.73;98957.90;213777;1322;24517;-70
2021/12/20 17:40:45;;;;;;;;;;;;;;;-0.17;85.61;98971.65;213910;1322;25466;-70
2021/12/20 17:47:07;;;;;;;;;;;;;;;;;;;;;
2021/12/20 17:52:41;;;;;;;;;;;;;;;;;;;;;
2021/12/20 17:58:50;;;;;;;;;;;;;;;-0.53;84.94;98986.71;213994;1321;24265;-70
2021/12/20 18:05:02;;;;;;;;;;;;;;;-0.46;85.22;98990.41;213565;1316;25170;-69
2021/12/20 18:10:31;;;;;;;;;;;;;;;;;;;;;
2021/12/20 18:15:50;;;;;;;;;;;;;;;-0.47;84.60;99011.43;214070;1323;25476;-70
2021/12/20 18:21:46;;;;;;;;;;;;;;;-0.52;83.90;99016.99;213986;1317;22557;-70
2021/12/20 18:27:49;;;;;;;;;;;;;;;-0.58;83.54;99016.23;213964;1316;22853;-70
2021/12/20 18:33:58;;;;;;;;;;;;;;;-0.59;83.29;99029.52;213919;1316;22644;-70
2021/12/20 18:45:34;;;;;;;;;;;;;;;-0.58;82.39;99048.85;213799;1324;22573;-71
2021/12/20 18:58:23;;;;;;;;;;;;;;;;;;;;;
2021/12/20 19:04:43;;;;;;;;;;;;;;;;;;;;;
2021/12/20 19:16:44;;;;;;;;;;;;;;;;;;;;;
2021/12/20 19:34:48;;;;;;;;;;;;;;;;;;;;;
2021/12/20 19:40:07;;;;;;;;;;;;;;;-0.63;81.37;99105.59;213850;1321;22636;-71
2021/12/20 19:46:03;;;;;;;;;;;;;;;-0.60;81.42;99107.40;214044;1323;22568;-70
2021/12/20 19:51:12;;;;;;;;;;;;;;;-0.60;81.60;99118.98;213873;1324;24360;-70
2021/12/20 19:57:09;;;;;;;;;;;;;;;-0.61;81.36;99132.67;212864;1321;25442;-70
2021/12/20 20:02:51;;;;;;;;;;;;;;;-0.66;80.89;99143.31;213655;1316;25366;-71
2021/12/20 20:08:44;;;;;;;;;;;;;;;-0.70;81.19;99146.08;214182;1321;24311;-71
2021/12/20 20:15:33;;;;;;;;;;;;;;;;;;;;;
2021/12/20 20:22:09;;;;;;;;;;;;;;;;;;;;;
2021/12/20 20:28:43;;;;;;;;;;;;;;;;;;;;;
2021/12/20 20:40:08;;;;;;;;;;;;;;;-0.86;80.23;99160.83;213390;1318;22567;-70
2021/12/20 20:45:19;;;;;;;;;;;;;;;-0.88;80.24;99164.03;213548;1323;22681;-70
2021/12/20 20:51:11;;;;;;;;;;;;;;;-0.93;80.08;99167.04;212741;1324;22775;-70
2021/12/20 20:56:14;;;;;;;;;;;;;;;-1.00;79.73;99174.69;212898;1321;25015;-70
2021/12/20 21:07:49;;;;;;;;;;;;;;;;;;;;;
2021/12/20 21:12:58;;;;;;;;;;;;;;;-1.14;78.93;99189.05;212764;1317;24305;-69
2021/12/20 21:18:54;;;;;;;;;;;;;;;-1.12;78.90;99189.89;212840;1316;22642;-68
2021/12/20 21:24:28;;;;;;;;;;;;;;;-1.14;78.84;99191.73;212471;1321;25454;-69
2021/12/20 21:30:11;;;;;;;;;;;;;;;-1.19;78.96;99194.95;212459;1322;25230;-69
2021/12/20 21:36:10;;;;;;;;;;;;;;;-1.32;78.87;99195.95;212436;1322;22736;-69
2021/12/20 21:41:51;;;;;;;;;;;;;;;-1.44;78.98;99196.21;208856;1324;5386611;-68
2021/12/20 21:47:25;;;;;;;;;;;;;;;;;;;;;
2021/12/20 22:00:05;;;;;;;;;;;;;;;-1.70;78.95;99217.48;212203;1316;25390;-68
2021/12/20 22:05:53;;;;;;;;;;;;;;;-1.78;79.02;99228.12;212653;1323;22586;-68
2021/12/20 22:11:16;;;;;;;;;;;;;;;;;;;;;
2021/12/20 22:29:10;;;;;;;;;;;;;;;-1.72;78.73;99253.93;212500;1322;24334;-68
2021/12/20 22:34:36;;;;;;;;;;;;;;;-1.77;78.66;99256.30;212524;1318;22673;-69
2021/12/20 22:40:43;;;;;;;;;;;;;;;-1.85;78.54;99257.27;212436;1324;22612;-68
2021/12/20 22:52:40;;;;;;;;;;;;;;;-1.92;78.84;99258.26;212602;1323;22580;-69
2021/12/20 22:57:43;;;;;;;;;;;;;;;-2.01;78.83;99251.17;212750;1324;22576;-68
2021/12/20 23:03:51;;;;;;;;;;;;;;;-2.12;78.82;99250.06;212616;1324;22587;-68
2021/12/20 23:09:25;;;;;;;;;;;;;;;-2.16;79.09;99255.14;212827;1322;22569;-68
2021/12/20 23:15:24;;;;;;;;;;;;;;;-2.17;79.43;99266.12;212545;1319;22598;-69
2021/12/20 23:21:49;;;;;;;;;;;;;;;;;;;;;
2021/12/20 23:27:40;;;;;;;;;;;;;;;-2.08;79.71;99264.34;212833;1324;23952;-68
2021/12/20 23:33:09;;;;;;;;;;;;;;;-2.04;79.74;99262.71;212674;1323;25553;-69
2021/12/20 23:39:18;;;;;;;;;;;;;;;-2.03;79.80;99269.27;213009;1316;22587;-69
2021/12/20 23:45:27;;;;;;;;;;;;;;;;;;;;;
2021/12/20 23:51:36;;;;;;;;;;;;;;;-2.01;79.77;99268.11;212824;1322;22823;-69
